Hadley, Minnesota
Current Conditions -  °F | °C
As of 8:56 AM on Monday 22 Dec 2014 (Local Time) from KDVP Reporting Station
Light Rain Light Rain  
Wind Chill: 27°   Ceiling: 200
Heat Index: 37°   Visibility: 5mi
Dew Point: 37°   Wind: 18mph
Humidity: 100%   Direction: 140°SE
Pressure: 29.49"   Gusts: 24mph
Location:  44.0326°N, 95.9478°W
Report Text: KDVP 221456Z AUTO 14016G21KT 5SM -RA OVC002 03/03 A2949 RMK AO2 T00280028
Loading
Personal Weather Stations






























Interactive Weather Map New forecast layout! Learn more

10-Day Weather Forecast

Advertisements
Track Severe Weather on mobile